Time;durP1;ratioP1;P1;durP2;ratioP2;P2;SDS_P1;SDS_P2;PMS_P1;PMS_P2;Temp;Humidity;BMP_temperature;BMP_pressure;BME280_temperature;BME280_humidity;BME280_pressure;Samples;Min_cycle;Max_cycle;Signal;HPM_P1;HPM_P2
2023/11/14 00:05:13;;;;;;;7.93;3.13;;;13.40;99.90;;;;;;10340217;28;20203;-79
2023/11/14 00:10:35;;;;;;;7.20;3.87;;;13.40;99.90;;;;;;10340337;28;20298;-80
2023/11/14 00:15:55;;;;;;;10.60;2.93;;;13.40;99.90;;;;;;10307279;28;20211;-80
2023/11/14 00:21:15;;;;;;;9.17;3.37;;;13.40;99.90;;;;;;10332922;28;20226;-80
2023/11/14 00:26:38;;;;;;;3.70;2.70;;;13.40;99.90;;;;;;10306586;28;20247;-79
2023/11/14 00:31:59;;;;;;;8.00;2.77;;;13.40;99.90;;;;;;10329483;28;20223;-80
2023/11/14 00:37:20;;;;;;;5.50;2.70;;;13.40;99.90;;;;;;10310430;28;20227;-80
2023/11/14 00:42:41;;;;;;;3.47;2.73;;;13.40;99.90;;;;;;10310928;28;20223;-80
2023/11/14 00:48:02;;;;;;;7.77;3.17;;;13.30;99.90;;;;;;10317326;28;20199;-79
2023/11/14 00:53:23;;;;;;;5.83;2.80;;;13.20;99.90;;;;;;10302097;28;20298;-80
2023/11/14 00:58:45;;;;;;;8.57;2.90;;;13.30;99.90;;;;;;10320527;28;20654;-80
2023/11/14 01:04:09;;;;;;;5.90;2.73;;;13.20;99.90;;;;;;10315748;28;20704;-79
2023/11/14 01:09:30;;;;;;;6.90;3.23;;;13.10;99.90;;;;;;10321860;28;20195;-79
2023/11/14 01:14:52;;;;;;;5.57;2.67;;;13.00;99.90;;;;;;10294701;28;20760;-79
2023/11/14 01:20:13;;;;;;;5.30;3.33;;;13.00;99.90;;;;;;10311622;28;20298;-80
2023/11/14 01:25:34;;;;;;;8.13;3.60;;;13.00;99.90;;;;;;10299377;28;20203;-78
2023/11/14 01:30:56;;;;;;;7.57;3.00;;;12.90;99.90;;;;;;10303350;28;20212;-79
2023/11/14 01:36:16;;;;;;;8.93;3.13;;;12.90;99.90;;;;;;10331475;28;20210;-80
2023/11/14 01:41:37;;;;;;;8.03;2.50;;;12.90;99.90;;;;;;10297428;28;20220;-80
2023/11/14 01:46:59;;;;;;;10.50;3.30;;;12.90;99.90;;;;;;10295749;28;20279;-78
2023/11/14 01:52:20;;;;;;;5.53;2.50;;;12.90;99.90;;;;;;10308555;28;20613;-78
2023/11/14 01:57:40;;;;;;;10.60;3.33;;;12.90;99.90;;;;;;10298379;28;20685;-78
2023/11/14 02:03:02;;;;;;;7.03;3.47;;;12.90;99.90;;;;;;10315254;28;20796;-77
2023/11/14 02:08:23;;;;;;;8.87;2.83;;;12.90;99.90;;;;;;10310753;28;20200;-78
2023/11/14 02:13:45;;;;;;;8.93;3.20;;;12.90;99.90;;;;;;10288987;28;20309;-80
2023/11/14 02:19:07;;;;;;;8.77;3.30;;;12.90;99.90;;;;;;10305163;28;20261;-78
2023/11/14 02:24:29;;;;;;;7.73;3.50;;;12.80;99.90;;;;;;10306254;28;20298;-76
2023/11/14 02:29:54;;;;;;;4.80;3.40;;;12.80;99.90;;;;;;10315714;28;20229;-78
2023/11/14 02:35:14;;;;;;;11.40;3.80;;;12.80;99.90;;;;;;10311276;28;20195;-78
2023/11/14 02:40:37;;;;;;;6.57;3.07;;;12.80;99.90;;;;;;10309811;28;20231;-77
2023/11/14 02:45:59;;;;;;;5.73;3.43;;;12.80;99.90;;;;;;10302075;28;20222;-78
2023/11/14 02:51:20;;;;;;;10.17;4.20;;;12.70;99.90;;;;;;10307831;28;20223;-78
2023/11/14 02:56:41;;;;;;;4.37;2.90;;;12.70;99.90;;;;;;10304895;28;20281;-78
2023/11/14 03:02:05;;;;;;;5.87;3.37;;;12.60;99.90;;;;;;10304351;28;20215;-78
2023/11/14 03:07:25;;;;;;;8.50;3.00;;;12.60;99.90;;;;;;10332121;28;20294;-80
2023/11/14 03:12:46;;;;;;;5.90;3.53;;;12.60;99.90;;;;;;10288107;28;20223;-79
2023/11/14 03:18:08;;;;;;;10.63;3.40;;;12.60;99.90;;;;;;10321481;28;20219;-80
2023/11/14 03:23:28;;;;;;;7.50;3.53;;;12.60;99.90;;;;;;10285126;28;20223;-80
2023/11/14 03:28:49;;;;;;;7.23;3.30;;;12.60;99.90;;;;;;10301591;28;20192;-80
2023/11/14 03:34:11;;;;;;;5.07;3.37;;;12.50;99.90;;;;;;10326965;28;20219;-80
2023/11/14 03:39:33;;;;;;;5.00;3.10;;;12.50;99.90;;;;;;10335507;28;20216;-80
2023/11/14 03:44:53;;;;;;;6.43;3.20;;;12.50;99.90;;;;;;10306946;28;21007;-78
2023/11/14 03:50:15;;;;;;;10.20;3.90;;;12.40;99.90;;;;;;10318808;28;20200;-77
2023/11/14 03:55:36;;;;;;;9.33;3.80;;;12.40;99.90;;;;;;10315612;28;20592;-80
2023/11/14 04:00:57;;;;;;;4.53;2.83;;;12.40;99.90;;;;;;10325665;28;20224;-80
2023/11/14 04:06:18;;;;;;;7.43;3.33;;;12.40;99.90;;;;;;10300456;28;20211;-78
2023/11/14 04:11:45;;;;;;;9.00;3.80;;;12.40;99.90;;;;;;10320430;28;20227;-80
2023/11/14 04:17:06;;;;;;;5.80;3.40;;;12.40;99.90;;;;;;10305894;28;20244;-80
2023/11/14 04:22:28;;;;;;;5.83;3.23;;;12.40;99.90;;;;;;10317812;28;20255;-79
2023/11/14 04:27:48;;;;;;;8.83;3.50;;;12.40;99.90;;;;;;10332718;28;20227;-80
2023/11/14 04:33:09;;;;;;;5.50;4.90;;;12.30;99.90;;;;;;10320065;28;20212;-80
2023/11/14 04:38:31;;;;;;;4.43;4.03;;;12.30;99.90;;;;;;10333980;28;20258;-80
2023/11/14 04:43:51;;;;;;;7.13;3.93;;;12.30;99.90;;;;;;10307312;28;20256;-79
2023/11/14 04:49:12;;;;;;;7.63;4.23;;;12.30;99.90;;;;;;10334053;28;20242;-80
2023/11/14 04:54:34;;;;;;;7.07;3.27;;;12.30;99.90;;;;;;10286541;28;20605;-79
2023/11/14 04:59:54;;;;;;;6.07;4.63;;;12.20;99.90;;;;;;10333096;28;20223;-80
2023/11/14 05:05:15;;;;;;;5.43;4.33;;;12.20;99.90;;;;;;10293014;28;20192;-79
2023/11/14 05:10:37;;;;;;;9.50;5.33;;;12.10;99.90;;;;;;10298078;28;20219;-80
2023/11/14 05:15:58;;;;;;;7.93;4.87;;;12.00;99.90;;;;;;10336408;28;20669;-80
2023/11/14 05:21:19;;;;;;;10.27;4.03;;;12.00;99.90;;;;;;10330083;28;20211;-80
2023/11/14 05:26:41;;;;;;;5.57;3.33;;;12.00;99.90;;;;;;10305132;28;20195;-80
2023/11/14 05:32:02;;;;;;;6.63;3.40;;;12.00;99.90;;;;;;10326064;28;20212;-80
2023/11/14 05:37:22;;;;;;;3.70;3.10;;;12.10;99.90;;;;;;10309619;28;20211;-80
2023/11/14 05:42:44;;;;;;;8.27;3.43;;;12.10;99.90;;;;;;10321719;28;20232;-80
2023/11/14 05:48:05;;;;;;;4.10;2.70;;;12.20;99.90;;;;;;10300105;28;20613;-80
2023/11/14 05:53:26;;;;;;;4.97;3.47;;;12.20;99.90;;;;;;10322859;28;20235;-79
2023/11/14 05:58:48;;;;;;;5.87;3.23;;;12.10;99.90;;;;;;10301204;28;20227;-80
2023/11/14 06:04:08;;;;;;;3.73;2.43;;;12.10;99.90;;;;;;10312716;28;20228;-80
2023/11/14 06:09:29;;;;;;;7.03;3.43;;;12.10;99.90;;;;;;10321372;28;20672;-80
2023/11/14 06:14:51;;;;;;;6.17;2.80;;;12.20;99.90;;;;;;10307484;28;20223;-79
2023/11/14 06:20:14;;;;;;;8.13;2.80;;;12.20;99.90;;;;;;10325466;28;20731;-80
2023/11/14 06:25:34;;;;;;;6.73;3.27;;;12.20;99.90;;;;;;10304238;28;20282;-80
2023/11/14 06:30:57;;;;;;;5.67;3.50;;;12.20;99.90;;;;;;10333620;28;20676;-80
2023/11/14 06:36:17;;;;;;;5.00;2.80;;;12.20;99.90;;;;;;10298238;28;20187;-80
2023/11/14 06:41:38;;;;;;;5.30;2.70;;;12.20;99.90;;;;;;10321487;28;20223;-80
2023/11/14 06:47:00;;;;;;;5.97;2.80;;;12.10;99.90;;;;;;10304516;28;20414;-79
2023/11/14 06:52:21;;;;;;;7.07;3.00;;;12.20;99.90;;;;;;10333282;28;20211;-79
2023/11/14 06:57:42;;;;;;;4.27;2.70;;;12.20;99.90;;;;;;10299268;28;20204;-81
2023/11/14 07:03:04;;;;;;;4.27;2.83;;;12.20;99.90;;;;;;10329503;28;20685;-80
2023/11/14 07:08:25;;;;;;;4.83;2.63;;;12.20;99.90;;;;;;10304943;28;20684;-80
2023/11/14 07:13:45;;;;;;;3.63;2.93;;;12.30;99.90;;;;;;10309853;28;20298;-80
2023/11/14 07:19:07;;;;;;;3.10;2.60;;;12.30;99.90;;;;;;10308862;28;20215;-80
2023/11/14 07:24:28;;;;;;;5.93;3.20;;;12.20;99.90;;;;;;10323136;28;20281;-79
2023/11/14 07:29:51;;;;;;;3.00;2.70;;;12.30;99.90;;;;;;10316090;28;20195;-80
2023/11/14 07:35:13;;;;;;;4.70;3.03;;;12.30;99.90;;;;;;10319728;28;20207;-80
2023/11/14 07:40:33;;;;;;;6.00;2.23;;;12.30;99.90;;;;;;10301739;28;20215;-80
2023/11/14 07:45:54;;;;;;;2.40;2.20;;;12.40;99.90;;;;;;10309227;28;20200;-80
2023/11/14 07:51:16;;;;;;;2.40;2.20;;;12.50;99.90;;;;;;10329126;28;20219;-80
2023/11/14 07:56:40;;;;;;;6.50;2.43;;;12.50;99.90;;;;;;10322703;28;20192;-80
2023/11/14 08:02:01;;;;;;;2.13;1.90;;;12.60;99.90;;;;;;10333807;28;20219;-80
2023/11/14 08:07:24;;;;;;;4.07;2.40;;;12.60;99.90;;;;;;10309922;28;20594;-80
2023/11/14 08:12:45;;;;;;;3.40;2.30;;;12.60;99.90;;;;;;10335588;28;20203;-80
2023/11/14 08:18:06;;;;;;;4.20;1.73;;;12.70;99.90;;;;;;10312036;28;20207;-80
2023/11/14 08:23:28;;;;;;;5.33;2.20;;;12.70;99.90;;;;;;10341908;28;20227;-78
2023/11/14 08:28:49;;;;;;;2.27;2.07;;;12.70;99.90;;;;;;10339849;28;20195;-79
2023/11/14 08:34:09;;;;;;;2.60;2.40;;;12.90;99.90;;;;;;10335652;28;20211;-79
2023/11/14 08:39:31;;;;;;;2.13;1.93;;;12.90;99.90;;;;;;10305446;28;20215;-79
2023/11/14 08:44:53;;;;;;;3.53;2.33;;;12.90;99.90;;;;;;10316508;28;20224;-79
2023/11/14 08:50:13;;;;;;;2.07;1.97;;;12.90;99.90;;;;;;10308414;28;20203;-78
2023/11/14 08:55:35;;;;;;;3.00;2.53;;;13.00;99.90;;;;;;10326037;28;20199;-78
2023/11/14 09:00:58;;;;;;;2.10;1.87;;;13.00;99.90;;;;;;10310462;28;20220;-78
2023/11/14 09:06:19;;;;;;;3.07;1.80;;;13.10;99.90;;;;;;10336170;28;20619;-78
2023/11/14 09:11:41;;;;;;;2.87;1.97;;;13.10;99.90;;;;;;10337186;28;20240;-78
2023/11/14 09:17:01;;;;;;;1.93;1.63;;;13.20;99.90;;;;;;10336411;28;20203;-79
2023/11/14 09:22:22;;;;;;;3.77;1.83;;;13.10;99.90;;;;;;10335391;28;20645;-78
2023/11/14 09:27:44;;;;;;;1.70;1.60;;;13.10;99.90;;;;;;10336781;28;20203;-77
2023/11/14 09:33:06;;;;;;;6.00;1.97;;;13.10;99.90;;;;;;10336368;28;20219;-79
2023/11/14 09:38:26;;;;;;;2.90;1.90;;;13.10;99.90;;;;;;10336597;28;20282;-78
2023/11/14 09:43:48;;;;;;;3.40;1.60;;;13.10;99.90;;;;;;10336628;28;20234;-78
2023/11/14 09:49:09;;;;;;;2.20;1.50;;;13.00;99.90;;;;;;10336162;28;20202;-79
2023/11/14 09:54:31;;;;;;;2.83;1.30;;;13.00;99.90;;;;;;10340059;28;20767;-78
2023/11/14 09:59:53;;;;;;;2.50;1.83;;;13.00;99.90;;;;;;10336009;28;20767;-79
2023/11/14 10:05:14;;;;;;;3.10;1.90;;;13.00;99.90;;;;;;10320156;28;20617;-79
2023/11/14 10:10:35;;;;;;;1.70;1.60;;;13.00;99.90;;;;;;10337114;28;20212;-78
2023/11/14 10:16:10;;;;;;;2.03;1.80;;;12.90;99.90;;;;;;10335850;28;20230;-78
2023/11/14 10:21:32;;;;;;;2.23;1.70;;;12.90;99.90;;;;;;10322374;28;20223;-79
2023/11/14 10:26:54;;;;;;;3.07;1.60;;;12.90;99.90;;;;;;10334888;28;20219;-78
2023/11/14 10:32:16;;;;;;;4.63;1.50;;;12.90;99.90;;;;;;10319096;28;20222;-79
2023/11/14 10:37:37;;;;;;;1.70;1.50;;;12.90;99.90;;;;;;10332738;28;20206;-78
2023/11/14 10:42:57;;;;;;;1.60;1.50;;;13.00;99.90;;;;;;10318018;28;20246;-79
2023/11/14 10:48:23;;;;;;;2.40;1.63;;;13.00;99.90;;;;;;10316881;28;20199;-79
2023/11/14 10:53:45;;;;;;;3.53;1.70;;;13.00;99.90;;;;;;10333690;28;20227;-78
2023/11/14 10:59:10;;;;;;;1.93;1.80;;;13.00;99.90;;;;;;10319349;28;20214;-78
2023/11/14 11:04:34;;;;;;;2.23;1.70;;;13.10;99.90;;;;;;10316486;28;20218;-79
2023/11/14 11:09:55;;;;;;;2.13;1.80;;;13.00;99.90;;;;;;10317350;28;20673;-78
2023/11/14 11:15:16;;;;;;;2.13;1.60;;;13.10;99.90;;;;;;10330043;28;20199;-78
2023/11/14 11:20:37;;;;;;;2.30;1.93;;;13.20;99.90;;;;;;10330983;28;20219;-78
2023/11/14 11:26:13;;;;;;;2.10;1.90;;;13.20;99.90;;;;;;10338467;28;20203;-79
2023/11/14 11:31:34;;;;;;;6.07;1.80;;;13.30;99.90;;;;;;10320211;28;20622;-79
2023/11/14 11:36:56;;;;;;;1.70;1.40;;;13.40;99.90;;;;;;10339938;28;20555;-78
2023/11/14 11:42:17;;;;;;;3.73;2.70;;;13.50;99.90;;;;;;10340566;28;20302;-79
2023/11/14 11:47:38;;;;;;;5.30;2.03;;;13.50;99.90;;;;;;10328339;28;20199;-78
2023/11/14 11:53:01;;;;;;;3.40;2.13;;;13.50;99.90;;;;;;10338953;28;20220;-79
2023/11/14 11:58:46;;;;;;;2.27;2.13;;;13.50;99.90;;;;;;10325806;28;20195;-78
2023/11/14 12:04:07;;;;;;;4.10;1.73;;;13.50;99.90;;;;;;10318655;28;20648;-79
2023/11/14 12:09:31;;;;;;;2.50;1.50;;;13.50;99.90;;;;;;10323353;28;20195;-77
2023/11/14 12:14:52;;;;;;;4.23;1.80;;;13.50;99.90;;;;;;10290062;28;20295;-79
2023/11/14 12:20:13;;;;;;;2.67;1.80;;;13.60;99.90;;;;;;10325019;28;20215;-79
2023/11/14 12:25:35;;;;;;;1.80;1.70;;;13.60;99.90;;;;;;10315619;28;20200;-79
2023/11/14 12:30:59;;;;;;;5.30;1.80;;;13.60;99.90;;;;;;10327045;28;20219;-78
2023/11/14 12:36:24;;;;;;;5.17;2.70;;;13.60;99.90;;;;;;10307283;28;20200;-78
2023/11/14 12:41:47;;;;;;;1.73;1.60;;;13.60;99.90;;;;;;10327161;28;20592;-79
2023/11/14 12:47:12;;;;;;;3.40;1.73;;;13.70;99.90;;;;;;10311238;28;20208;-79
2023/11/14 12:52:34;;;;;;;2.03;1.80;;;13.70;99.90;;;;;;10314544;28;20207;-78
2023/11/14 12:57:56;;;;;;;7.80;2.07;;;13.60;99.90;;;;;;10292482;28;20283;-78
2023/11/14 13:03:17;;;;;;;2.80;1.73;;;13.60;99.90;;;;;;10331229;28;20728;-78
2023/11/14 13:08:37;;;;;;;1.63;1.50;;;13.60;99.90;;;;;;10283297;28;20206;-79
2023/11/14 13:13:59;;;;;;;2.33;2.13;;;13.60;99.90;;;;;;10333216;28;20212;-79
2023/11/14 13:19:19;;;;;;;2.83;1.70;;;13.60;99.90;;;;;;10305222;28;20226;-79
2023/11/14 13:24:40;;;;;;;3.70;1.77;;;13.60;99.90;;;;;;10322059;28;20651;-79
2023/11/14 13:30:02;;;;;;;2.87;1.70;;;13.60;99.90;;;;;;10307839;28;20194;-78
2023/11/14 13:35:23;;;;;;;2.10;1.53;;;13.60;99.90;;;;;;10323198;28;20294;-79
2023/11/14 13:40:43;;;;;;;4.20;2.23;;;13.60;99.90;;;;;;10313722;28;20314;-79
2023/11/14 13:46:06;;;;;;;3.73;1.90;;;13.50;99.90;;;;;;10320762;28;20195;-78
2023/11/14 13:51:26;;;;;;;2.00;1.57;;;13.50;99.90;;;;;;10318970;28;20222;-79
2023/11/14 13:56:47;;;;;;;1.60;1.50;;;13.50;99.90;;;;;;10317173;28;20192;-79
2023/11/14 14:02:09;;;;;;;3.60;1.97;;;13.40;99.90;;;;;;10309924;28;20219;-78
2023/11/14 14:07:29;;;;;;;6.83;2.17;;;13.40;99.90;;;;;;10309468;28;20228;-79
2023/11/14 14:12:50;;;;;;;1.80;1.70;;;13.30;99.90;;;;;;10327493;28;20219;-79
2023/11/14 14:18:12;;;;;;;1.87;1.73;;;13.30;99.90;;;;;;10292916;28;20204;-79
2023/11/14 14:23:34;;;;;;;3.20;1.60;;;13.30;99.90;;;;;;10330892;28;20231;-79
2023/11/14 14:28:55;;;;;;;2.73;2.00;;;13.30;99.90;;;;;;10302915;28;20203;-79
2023/11/14 14:34:17;;;;;;;2.27;2.10;;;13.20;99.90;;;;;;10335779;28;20211;-79
2023/11/14 14:39:40;;;;;;;4.03;2.73;;;13.20;99.90;;;;;;10299389;28;20212;-77
2023/11/14 14:45:03;;;;;;;2.90;2.00;;;13.20;99.90;;;;;;10294781;28;20306;-78
2023/11/14 14:50:26;;;;;;;4.03;1.90;;;13.10;99.90;;;;;;10332334;28;20187;-78
2023/11/14 14:55:46;;;;;;;5.97;1.90;;;13.10;99.90;;;;;;10327267;28;20211;-77
2023/11/14 15:01:09;;;;;;;2.03;1.70;;;13.10;99.90;;;;;;10309178;28;20222;-78
2023/11/14 15:06:31;;;;;;;3.43;1.70;;;13.00;99.90;;;;;;10330097;28;20208;-78
2023/11/14 15:11:53;;;;;;;2.17;1.83;;;13.00;99.90;;;;;;10314729;28;20212;-79
2023/11/14 15:17:14;;;;;;;1.50;1.40;;;13.00;99.90;;;;;;10326533;28;20689;-77
2023/11/14 15:22:36;;;;;;;3.03;1.60;;;12.90;99.90;;;;;;10319276;28;20219;-78
2023/11/14 15:27:56;;;;;;;3.10;1.90;;;12.90;99.90;;;;;;10323093;28;20204;-78
2023/11/14 15:33:17;;;;;;;3.33;2.40;;;13.00;99.90;;;;;;10327037;28;20677;-79
2023/11/14 15:38:39;;;;;;;2.73;1.50;;;12.90;99.90;;;;;;10316972;28;20196;-79
2023/11/14 15:43:59;;;;;;;1.80;1.63;;;12.90;99.90;;;;;;10326319;28;20700;-78
2023/11/14 15:49:20;;;;;;;1.60;1.47;;;12.80;99.90;;;;;;10314174;28;20207;-79
2023/11/14 15:54:42;;;;;;;1.93;1.60;;;12.80;99.90;;;;;;10336648;28;20223;-78
2023/11/14 16:00:04;;;;;;;6.67;3.40;;;12.70;99.90;;;;;;10294095;28;20211;-79
2023/11/14 16:05:25;;;;;;;5.57;2.73;;;12.70;99.90;;;;;;10333931;28;20203;-78
2023/11/14 16:10:47;;;;;;;4.30;2.50;;;12.70;99.90;;;;;;10301609;28;20614;-78
2023/11/14 16:16:09;;;;;;;1.80;1.70;;;12.60;99.90;;;;;;10337283;28;20578;-79
2023/11/14 16:21:30;;;;;;;1.70;1.60;;;12.60;99.90;;;;;;10299924;28;20216;-79
2023/11/14 16:26:52;;;;;;;1.60;1.50;;;12.60;99.90;;;;;;10324081;28;20199;-78
2023/11/14 16:32:15;;;;;;;2.03;1.93;;;12.60;99.90;;;;;;10335206;28;20224;-78
2023/11/14 16:37:36;;;;;;;1.77;1.67;;;12.50;99.90;;;;;;10305804;28;20195;-78
2023/11/14 16:42:58;;;;;;;1.57;1.47;;;12.50;99.90;;;;;;10324750;28;20216;-77
2023/11/14 16:48:19;;;;;;;2.03;1.40;;;12.50;99.90;;;;;;10302046;28;20211;-77
2023/11/14 16:53:41;;;;;;;1.87;1.77;;;12.50;99.90;;;;;;10323209;28;20224;-78
2023/11/14 16:59:04;;;;;;;1.80;1.70;;;12.40;99.90;;;;;;10334547;28;20211;-78
2023/11/14 17:04:26;;;;;;;1.80;1.70;;;12.30;99.90;;;;;;10333334;28;20227;-78
2023/11/14 17:09:46;;;;;;;2.07;1.97;;;12.30;99.90;;;;;;10335561;28;20199;-78
2023/11/14 17:15:09;;;;;;;1.90;1.80;;;12.30;99.90;;;;;;10335921;28;20596;-79
2023/11/14 17:20:30;;;;;;;3.23;1.77;;;12.30;99.90;;;;;;10333425;28;20226;-78
2023/11/14 17:25:50;;;;;;;1.90;1.80;;;12.20;99.90;;;;;;10335176;28;20206;-78
2023/11/14 17:31:12;;;;;;;2.07;1.97;;;12.20;99.90;;;;;;10333983;28;20226;-79
2023/11/14 17:36:32;;;;;;;2.33;2.13;;;12.20;99.90;;;;;;10336909;28;20210;-79
2023/11/14 17:41:53;;;;;;;2.53;2.33;;;12.20;99.90;;;;;;10335356;28;20223;-79
2023/11/14 17:47:18;;;;;;;2.00;1.90;;;12.10;99.90;;;;;;10335730;28;20199;-79
2023/11/14 17:52:38;;;;;;;2.00;1.90;;;12.20;99.90;;;;;;10340075;28;20219;-78
2023/11/14 17:58:02;;;;;;;1.83;1.73;;;12.20;99.90;;;;;;10329214;28;20207;-78
2023/11/14 18:03:24;;;;;;;3.00;1.70;;;12.20;99.90;;;;;;10321931;28;20235;-78
2023/11/14 18:08:44;;;;;;;2.30;2.20;;;12.20;99.90;;;;;;10324741;28;20298;-78
2023/11/14 18:14:05;;;;;;;3.20;3.00;;;12.10;99.90;;;;;;10333893;28;20337;-79
2023/11/14 18:19:28;;;;;;;2.00;1.90;;;12.00;99.90;;;;;;10327609;28;20199;-80
2023/11/14 18:24:49;;;;;;;4.93;2.73;;;11.80;99.90;;;;;;10331079;28;20235;-80
2023/11/14 18:30:10;;;;;;;3.67;3.40;;;11.70;99.90;;;;;;10319078;28;20204;-78
2023/11/14 18:35:32;;;;;;;3.50;3.20;;;11.60;99.90;;;;;;10309830;28;20195;-78
2023/11/14 18:40:53;;;;;;;3.27;3.13;;;11.50;99.90;;;;;;10317030;28;20232;-78
2023/11/14 18:46:15;;;;;;;3.70;3.40;;;11.50;99.90;;;;;;10316052;28;20736;-78
2023/11/14 18:51:37;;;;;;;4.30;4.00;;;11.40;99.90;;;;;;10312445;28;20341;-78
2023/11/14 18:56:58;;;;;;;3.77;3.57;;;11.40;99.90;;;;;;10319444;28;20712;-79
2023/11/14 19:02:19;;;;;;;4.40;4.10;;;11.40;99.90;;;;;;10313383;28;20231;-79
2023/11/14 19:07:42;;;;;;;4.70;4.40;;;11.40;99.90;;;;;;10322980;28;20202;-79
2023/11/14 19:13:02;;;;;;;5.00;4.70;;;11.50;99.90;;;;;;10303398;28;20216;-77
2023/11/14 19:18:23;;;;;;;5.33;4.93;;;11.60;99.90;;;;;;10325836;28;20227;-79
2023/11/14 19:23:45;;;;;;;7.63;7.23;;;11.60;99.90;;;;;;10281123;28;20231;-79
2023/11/14 19:29:06;;;;;;;5.20;5.00;;;11.50;99.90;;;;;;10315712;28;20191;-77
2023/11/14 19:34:27;;;;;;;7.90;7.50;;;11.50;99.90;;;;;;10291335;28;20310;-78
2023/11/14 19:39:49;;;;;;;8.63;8.23;;;11.50;99.90;;;;;;10295131;28;20275;-80
2023/11/14 19:45:10;;;;;;;8.57;8.00;;;11.50;99.90;;;;;;10339418;28;20215;-78
2023/11/14 19:50:31;;;;;;;10.00;9.40;;;11.40;99.90;;;;;;10339540;28;20208;-79
2023/11/14 19:55:53;;;;;;;9.10;8.70;;;11.40;99.90;;;;;;10316102;28;20195;-79
2023/11/14 20:01:15;;;;;;;8.60;8.20;;;11.40;99.90;;;;;;10326407;28;20235;-79
2023/11/14 20:06:39;;;;;;;8.13;7.73;;;11.40;99.90;;;;;;10336198;28;20207;-78
2023/11/14 20:12:01;;;;;;;8.53;8.17;;;11.40;99.90;;;;;;10324206;28;20254;-79
2023/11/14 20:17:22;;;;;;;9.70;9.20;;;11.40;99.90;;;;;;10337081;28;20676;-79
2023/11/14 20:22:42;;;;;;;6.60;6.30;;;11.30;99.90;;;;;;10337864;28;20775;-79
2023/11/14 20:28:05;;;;;;;8.20;7.80;;;11.30;99.90;;;;;;10338069;28;20195;-80
2023/11/14 20:33:25;;;;;;;7.27;6.97;;;11.30;99.90;;;;;;10331940;28;20215;-79
2023/11/14 20:38:45;;;;;;;3.90;3.70;;;11.20;99.90;;;;;;10332124;28;20200;-80
2023/11/14 20:44:08;;;;;;;6.70;6.20;;;11.30;99.90;;;;;;10318747;28;20219;-77
2023/11/14 20:49:28;;;;;;;6.00;5.70;;;11.30;99.90;;;;;;10321698;28;20242;-78
2023/11/14 20:54:49;;;;;;;6.80;6.20;;;11.20;99.90;;;;;;10333543;28;20622;-78
2023/11/14 21:00:14;;;;;;;6.93;6.53;;;11.30;99.90;;;;;;10334562;28;20203;-79
2023/11/14 21:05:35;;;;;;;7.53;7.13;;;11.30;99.90;;;;;;10320446;28;20203;-78
2023/11/14 21:10:55;;;;;;;5.57;5.07;;;11.40;99.90;;;;;;10334427;28;20226;-80
2023/11/14 21:16:18;;;;;;;6.60;6.30;;;11.50;99.90;;;;;;10324878;28;20693;-79
2023/11/14 21:21:41;;;;;;;7.03;6.73;;;11.60;99.90;;;;;;10323116;28;20218;-78
2023/11/14 21:27:02;;;;;;;6.00;5.60;;;11.60;99.90;;;;;;10334308;28;20198;-78
2023/11/14 21:32:30;;;;;;;5.80;5.50;;;11.70;99.90;;;;;;10327405;28;20219;-80
2023/11/14 21:37:51;;;;;;;5.90;5.67;;;11.70;99.90;;;;;;10320473;28;20655;-79
2023/11/14 21:43:11;;;;;;;5.43;5.03;;;11.80;99.90;;;;;;10332998;28;20223;-79
2023/11/14 21:48:34;;;;;;;5.77;5.47;;;11.90;99.90;;;;;;10338280;28;20199;-80
2023/11/14 21:53:56;;;;;;;4.80;4.60;;;11.90;99.90;;;;;;10331937;28;20220;-79
2023/11/14 21:59:17;;;;;;;5.77;5.37;;;11.80;99.90;;;;;;10339267;28;20199;-78
2023/11/14 22:04:39;;;;;;;4.63;4.33;;;11.80;99.90;;;;;;10336129;28;20696;-79
2023/11/14 22:09:59;;;;;;;5.73;5.33;;;11.80;99.90;;;;;;10336052;28;20214;-79
2023/11/14 22:15:20;;;;;;;4.60;4.40;;;11.90;99.90;;;;;;10335537;28;20195;-80
2023/11/14 22:20:42;;;;;;;4.50;4.30;;;11.90;99.90;;;;;;10340793;28;20286;-78
2023/11/14 22:26:03;;;;;;;5.13;4.73;;;11.90;99.90;;;;;;10337812;28;20215;-79
2023/11/14 22:31:24;;;;;;;4.50;4.40;;;11.90;99.90;;;;;;10332691;28;20597;-79
2023/11/14 22:36:46;;;;;;;3.73;3.63;;;11.90;99.90;;;;;;10330287;28;20202;-78
2023/11/14 22:42:07;;;;;;;4.53;4.30;;;11.90;99.90;;;;;;10332078;28;20247;-80
2023/11/14 22:47:34;;;;;;;3.97;3.67;;;12.00;99.90;;;;;;10332047;28;20203;-80
2023/11/14 22:52:56;;;;;;;3.73;3.63;;;12.10;99.90;;;;;;10329351;28;20211;-79
2023/11/14 22:58:17;;;;;;;3.93;3.63;;;12.10;99.90;;;;;;10333693;28;20199;-79
2023/11/14 23:03:38;;;;;;;4.10;3.67;;;12.10;99.90;;;;;;10331724;28;20711;-80
2023/11/14 23:08:59;;;;;;;3.80;3.60;;;12.10;99.90;;;;;;10332907;28;21007;-80
2023/11/14 23:14:20;;;;;;;3.83;3.23;;;12.10;99.90;;;;;;10331433;28;20212;-79
2023/11/14 23:19:42;;;;;;;3.47;3.17;;;12.10;99.90;;;;;;10321376;28;20285;-80
2023/11/14 23:25:05;;;;;;;4.43;2.70;;;12.10;99.90;;;;;;10341329;28;20242;-79
2023/11/14 23:30:25;;;;;;;2.80;2.60;;;12.10;99.90;;;;;;10340660;28;20688;-80
2023/11/14 23:35:46;;;;;;;3.13;2.70;;;12.10;99.90;;;;;;10340610;28;20202;-79
2023/11/14 23:41:08;;;;;;;3.17;2.90;;;12.20;99.90;;;;;;10341168;28;20301;-80
2023/11/14 23:46:29;;;;;;;4.90;3.03;;;12.20;99.90;;;;;;10340699;28;20645;-80
2023/11/14 23:51:49;;;;;;;3.40;3.10;;;12.20;99.90;;;;;;10334867;28;20222;-79
2023/11/14 23:57:11;;;;;;;3.40;3.20;;;12.20;99.90;;;;;;10345269;28;20214;-80
